Latest Weather Observations for Norah Head

IDN60901

Issued at 7:51 pm EST Thursday 28 May 2015 (issued every 10 minutes, with the page automatically refreshed every 10 minutes)

About weather observations | Map of Sydney area stations | Latest observations for Sydney area | Other Formats
Station Details ID: 061366 Name: NORAH HEAD AWS Lat: -33.28 Lon: 151.58 Height: 18.8 m
Data from the previous 72 hours. | See also: Recent months at Norah Head
Date/Time
EST
Tmp

°C
App
Tmp
°C
Dew
Point
°C
Rel
Hum
%
Delta-T

°C
Wind Press
QNH
hPa
Press
MSL
hPa
Rain
since
9 am
mm
Dir
 
Spd
km/h
Gust
km/h
Spd
kts
Gust
kts
28/07:30pm 17.2 16.1 15.2 88 1.2 NNW 15 20 8 11 1021.2 1021.1 0.0
28/07:00pm 17.1 16.6 14.9 87 1.3 NNW 11 17 6 9 1021.1 1021.0 0.0
28/06:30pm 17.3 16.8 14.8 85 1.4 NNW 11 17 6 9 1021.1 1021.0 0.0
28/06:00pm 17.5 16.9 14.6 83 1.7 NW 11 15 6 8 1020.8 1020.7 0.0
28/05:30pm 17.9 17.7 14.6 81 1.9 NNW 9 15 5 8 1020.9 1020.8 0.0
28/05:00pm 18.4 17.1 14.7 79 2.1 NNW 15 19 8 10 1020.6 1020.5 0.0
28/04:30pm 19.1 17.9 15.0 77 2.4 N 15 19 8 10 1020.5 1020.4 0.0
28/04:00pm 19.4 17.9 15.3 77 2.4 NNE 17 19 9 10 1020.3 1020.2 0.0
28/03:30pm 19.8 18.3 15.2 75 2.7 N 17 19 9 10 1020.6 1020.5 0.0
28/03:00pm 20.1 17.9 14.5 70 3.3 NNE 19 20 10 11 1020.4 1020.3 0.0
28/02:30pm 20.3 18.7 14.0 67 3.6 NNE 15 17 8 9 1020.3 1020.2 0.0
28/02:00pm 20.8 20.8 14.2 66 3.8 NNE 7 11 4 6 1020.5 1020.4 0.0
28/01:30pm 21.6 21.3 15.4 68 3.7 NE 11 13 6 7 1020.7 1020.6 0.0
28/01:00pm 20.9 20.6 14.3 66 3.8 ENE 9 9 5 5 1021.2 1021.1 0.0
28/12:30pm 21.9 22.0 14.5 63 4.3 NE 7 9 4 5 1021.7 1021.6 0.0
28/12:00pm 21.5 21.5 14.2 63 4.2 NE 7 9 4 5 1022.0 1021.9 0.0
28/11:30am 20.9 21.1 14.1 65 3.9 NE 6 7 3 4 1022.6 1022.5 0.0
28/11:00am 20.1 19.9 13.1 64 4.0 N 6 7 3 4 1023.1 1023.0 0.0
28/10:30am 19.6 18.6 12.4 63 4.0 N 9 9 5 5 1023.4 1023.3 0.0
28/10:00am 19.5 19.0 12.0 62 4.1 NNW 6 7 3 4 1023.6 1023.5 0.0
28/09:30am 18.4 17.8 11.7 65 3.7 NW 6 9 3 5 1023.7 1023.6 0.0
28/09:00am 17.0 16.1 10.8 67 3.3 NW 6 11 3 6 1023.6 1023.5 0.0
28/08:30am 16.4 15.4 10.3 67 3.2 WNW 6 11 3 6 1023.5 1023.4 0.0
28/08:00am 15.2 13.5 9.8 70 2.8 W 9 15 5 8 1023.1 1023.0 0.0
28/07:30am 15.0 13.7 9.8 71 2.7 W 7 9 4 5 1023.0 1022.9 0.0
28/07:00am 14.3 12.9 9.7 74 2.4 W 7 13 4 7 1023.1 1023.0 0.0
28/06:30am 14.1 13.0 9.9 76 2.2 WNW 6 11 3 6 1022.9 1022.8 0.0
28/06:00am 13.4 11.7 9.8 79 1.8 WNW 9 11 5 6 1022.4 1022.3 0.0
28/05:30am 13.3 11.7 10.1 81 1.7 WNW 9 13 5 7 1022.2 1022.1 0.0
28/05:00am 12.6 11.5 10.5 87 1.1 WNW 7 11 4 6 1022.1 1022.0 0.0
28/04:30am 12.6 11.1 10.5 87 1.1 WNW 9 13 5 7 1022.1 1022.0 0.0
28/04:00am 13.1 11.5 10.3 83 1.4 WNW 9 11 5 6 1022.2 1022.1 0.0
28/03:30am 13.3 12.1 10.3 82 1.6 NW 7 11 4 6 1022.1 1022.0 0.0
28/03:00am 13.1 12.2 10.6 85 1.3 WNW 6 11 3 6 1022.3 1022.2 0.0
28/02:30am 12.8 11.4 10.9 88 1.0 WNW 9 11 5 6 1022.5 1022.4 0.0
28/02:00am 12.7 11.2 10.6 87 1.1 WNW 9 11 5 6 1022.5 1022.4 0.0
28/01:30am 12.9 11.7 10.4 85 1.3 NW 7 9 4 5 1022.7 1022.6 0.0
28/01:00am 12.8 11.7 10.7 87 1.1 WNW 7 7 4 4 1022.7 1022.6 0.0
28/12:30am 13.5 12.7 11.6 88 1.0 NW 7 9 4 5 1022.8 1022.7 0.0
28/12:00am 13.9 13.1 11.2 84 1.4 NNW 6 7 3 4 1022.8 1022.7 0.0
 
Date/Time
EST
Tmp

°C
App
Tmp
°C
Dew
Point
°C
Rel
Hum
%
Delta-T

°C
Wind Press
QNH
hPa
Press
MSL
hPa
Rain
since
9 am
mm
Dir
 
Spd
km/h
Gust
km/h
Spd
kts
Gust
kts
27/11:30pm 14.7 12.5 10.7 77 2.1 W 13 19 7 10 1022.8 1022.7 0.0
27/11:00pm 14.6 15.0 11.4 81 1.7 CALM 0 2 0 1 1022.9 1022.8 0.0
27/10:30pm 14.2 14.0 10.4 78 2.0 W 2 4 1 2 1022.8 1022.7 0.0
27/10:00pm 14.4 14.1 10.2 76 2.2 W 2 6 1 3 1022.8 1022.7 0.0
27/09:30pm 14.3 14.0 10.1 76 2.2 NNW 2 4 1 2 1023.0 1022.9 0.0
27/09:00pm 14.8 13.8 10.4 75 2.3 NNW 6 7 3 4 1022.9 1022.8 0.0
27/08:30pm 15.1 15.2 10.3 73 2.5 CALM 0 4 0 2 1022.9 1022.8 0.0
27/08:00pm 15.3 14.6 11.3 77 2.1 NW 6 7 3 4 1022.8 1022.7 0.0
27/07:30pm 15.6 15.1 10.8 73 2.6 NW 4 6 2 3 1022.8 1022.7 0.0
27/07:00pm 15.4 14.6 11.2 76 2.2 NW 6 9 3 5 1022.4 1022.3 0.0
27/06:30pm 15.8 15.0 11.2 74 2.5 NW 6 9 3 5 1022.3 1022.2 0.0
27/06:00pm 15.9 15.1 11.1 73 2.6 WNW 6 7 3 4 1022.2 1022.1 0.0
27/05:30pm 15.9 15.1 10.9 72 2.7 WNW 6 9 3 5 1021.8 1021.7 0.0
27/05:00pm 15.9 15.1 10.9 72 2.7 WNW 6 7 3 4 1021.8 1021.7 0.0
27/04:30pm 16.8 16.5 11.5 71 2.9 NW 4 7 2 4 1021.8 1021.7 0.0
27/04:00pm 17.1 17.1 11.2 68 3.2 WNW 2 4 1 2 1021.9 1021.8 0.0
27/03:30pm 17.6 16.7 10.5 63 3.8 WNW 6 11 3 6 1021.9 1021.8 0.0
27/03:00pm 18.6 17.6 10.9 61 4.2 NW 7 15 4 8 1022.0 1021.9 0.0
27/02:30pm 18.6 17.5 10.7 60 4.3 NE 7 11 4 6 1021.9 1021.8 0.0
27/02:00pm 18.1 17.2 11.4 65 3.6 ENE 7 9 4 5 1022.0 1021.9 0.0
27/01:30pm 18.6 17.6 10.9 61 4.2 ENE 7 9 4 5 1022.3 1022.2 0.0
27/01:00pm 18.6 18.0 10.4 59 4.4 E 4 7 2 4 1022.7 1022.6 0.0
27/12:30pm 18.5 17.7 9.8 57 4.6 ESE 4 7 2 4 1023.1 1023.0 0.0
27/12:00pm 20.6 20.1 12.1 58 4.7 NNE 6 6 3 3 1023.5 1023.4 0.0
27/11:30am 19.4 19.1 11.4 60 4.4 NNW 4 7 2 4 1023.9 1023.8 0.0
27/11:00am 18.5 17.9 10.3 59 4.4 NW 4 7 2 4 1024.6 1024.6 0.0
27/10:30am 17.3 16.3 10.4 64 3.7 WSW 6 11 3 6 1025.0 1025.0 0.0
27/10:00am 16.7 16.2 10.8 68 3.1 NW 4 6 2 3 1025.1 1025.1 0.0
27/09:30am 15.8 14.7 10.1 69 3.0 W 6 9 3 5 1025.2 1025.2 0.0
27/09:00am 14.9 14.1 9.7 71 2.7 WNW 4 9 2 5 1025.2 1025.2 0.0
27/08:30am 15.3 14.7 10.3 72 2.6 WNW 4 9 2 5 1025.0 1025.0 0.0
27/08:00am 13.5 12.1 9.7 78 1.9 WNW 7 13 4 7 1024.6 1024.6 0.0
27/07:30am 12.3 10.4 9.1 81 1.6 WNW 9 13 5 7 1024.5 1024.5 0.0
27/07:00am 12.4 11.1 9.8 84 1.3 NW 7 11 4 6 1024.1 1024.0 0.0
27/06:30am 12.6 11.2 9.4 81 1.6 WNW 7 15 4 8 1024.3 1024.3 0.0
27/06:00am 13.5 10.9 9.4 76 2.1 W 13 17 7 9 1024.3 1024.3 0.0
27/05:30am 13.3 10.3 9.2 76 2.1 W 15 19 8 10 1024.1 1024.0 0.0
27/05:00am 13.4 10.4 9.3 76 2.1 W 15 19 8 10 1024.0 1023.9 0.0
27/04:30am 13.8 10.8 9.3 74 2.3 W 15 17 8 9 1024.1 1024.0 0.0
27/04:00am 13.8 11.2 9.3 74 2.3 W 13 17 7 9 1024.1 1024.0 0.0
27/03:30am 13.3 10.4 9.5 78 1.9 W 15 19 8 10 1024.5 1024.5 0.0
27/03:00am 13.5 10.6 9.7 78 1.9 WSW 15 19 8 10 1024.8 1024.8 0.0
27/02:30am 13.4 10.5 9.8 79 1.8 W 15 19 8 10 1025.0 1025.0 0.0
27/02:00am 13.4 11.1 10.4 82 1.6 W 13 17 7 9 1025.0 1025.0 0.0
27/01:30am 13.4 12.1 10.0 80 1.8 W 7 15 4 8 1024.9 1024.9 0.0
27/01:00am 13.3 11.3 10.1 81 1.6 W 11 17 6 9 1025.1 1025.1 0.0
27/12:30am 14.5 13.8 11.3 81 1.7 NW 6 11 3 6 1025.2 1025.2 0.0
27/12:00am 14.3 12.2 9.7 74 2.4 W 11 13 6 7 1025.3 1025.3 0.0
 
Date/Time
EST
Tmp

°C
App
Tmp
°C
Dew
Point
°C
Rel
Hum
%
Delta-T

°C
Wind Press
QNH
hPa
Press
MSL
hPa
Rain
since
9 am
mm
Dir
 
Spd
km/h
Gust
km/h
Spd
kts
Gust
kts
26/11:30pm 15.0 12.7 9.1 68 3.0 W 11 13 6 7 1025.7 1025.7 0.0
26/11:00pm 13.8 11.2 10.6 81 1.7 W 15 19 8 10 1026.1 1026.1 0.0
26/10:30pm 14.5 12.0 9.7 73 2.5 W 13 15 7 8 1025.8 1025.8 0.0
26/10:00pm 14.0 11.9 11.0 82 1.6 W 13 17 7 9 1026.1 1026.1 0.0
26/09:30pm 14.7 12.6 9.9 73 2.5 W 11 13 6 7 1026.1 1026.1 0.0
26/09:00pm 14.4 12.0 10.2 76 2.2 W 13 15 7 8 1026.3 1026.3 0.0
26/08:30pm 14.1 12.3 10.7 80 1.8 W 11 15 6 8 1026.4 1026.4 0.0
26/08:00pm 14.1 12.0 11.3 83 1.5 W 13 17 7 9 1026.6 1026.6 0.0
26/07:30pm 14.1 12.6 12.0 87 1.1 W 11 15 6 8 1026.6 1026.6 0.0
26/07:00pm 14.5 12.9 11.7 83 1.5 W 11 15 6 8 1026.6 1026.6 0.0
26/06:30pm 15.1 13.8 11.3 78 2.0 W 9 13 5 7 1026.4 1026.4 0.0
26/06:00pm 15.4 14.1 11.4 77 2.1 W 9 13 5 7 1026.3 1026.3 0.0
26/05:30pm 15.8 14.5 9.9 68 3.1 W 7 9 4 5 1026.1 1026.1 0.0
26/05:00pm 16.0 14.5 9.2 64 3.5 W 7 7 4 4 1026.0 1026.0 0.0
26/04:30pm 16.0 14.6 9.0 63 3.6 WSW 6 7 3 4 1025.9 1025.9 0.0
26/04:00pm 16.2 15.2 8.9 62 3.7 W 4 4 2 2 1026.1 1026.1 0.0
26/03:30pm 16.7 16.1 10.3 66 3.4 W 4 6 2 3 1026.5 1026.5 0.0
26/03:00pm 17.1 17.3 10.5 65 3.5 CALM 0 4 0 2 1026.6 1026.6 0.0
26/02:30pm 17.4 17.0 11.0 66 3.4 SSW 4 7 2 4 1026.6 1026.6 0.0
26/02:00pm 17.4 16.4 12.3 72 2.8 SSW 9 13 5 7 1026.8 1026.8 0.0
26/01:30pm 18.1 17.6 12.8 71 3.0 SSW 7 15 4 8 1027.0 1027.0 0.0
26/01:00pm 17.9 17.3 12.4 70 3.0 SW 7 11 4 6 1027.2 1027.2 0.0
26/12:30pm 17.2 16.0 11.5 69 3.1 SW 9 13 5 7 1027.5 1027.5 0.0
26/12:00pm 17.5 16.8 11.3 67 3.3 SSW 6 9 3 5 1028.0 1028.0 0.0
26/11:30am 17.4 16.9 12.1 71 2.9 SW 6 11 3 6 1028.5 1028.5 0.0
26/11:00am 16.8 15.8 11.1 69 3.0 WSW 7 13 4 7 1028.9 1028.9 0.0
26/10:30am 16.0 14.5 10.7 71 2.8 WSW 9 13 5 7 1029.2 1029.2 0.0
26/10:00am 15.3 13.3 10.3 72 2.6 WSW 11 17 6 9 1029.1 1029.1 0.0
26/09:30am 13.8 11.3 9.6 76 2.2 W 13 19 7 10 1029.2 1029.2 0.0
26/09:00am 13.1 10.4 9.0 76 2.1 W 13 20 7 11 1029.3 1029.3 0.0
26/08:30am 12.4 8.8 8.5 77 1.9 W 17 22 9 12 1029.1 1029.1 0.0
26/08:00am 11.6 8.0 8.3 80 1.6 W 17 22 9 12 1029.0 1029.0 0.0
26/07:30am 11.1 7.5 8.3 83 1.4 W 17 22 9 12 1028.7 1028.7 0.0
26/07:00am 11.1 7.1 8.3 83 1.4 W 19 24 10 13 1028.6 1028.6 0.0
26/06:30am 11.2 7.2 8.4 83 1.4 W 19 24 10 13 1028.3 1028.3 0.0
26/06:00am 11.3 7.9 9.0 86 1.1 W 17 20 9 11 1028.3 1028.3 0.0
26/05:30am 11.3 8.0 9.6 89 0.9 W 17 22 9 12 1027.9 1027.9 0.0
26/05:00am 11.4 8.6 10.1 92 0.7 W 15 20 8 11 1028.1 1028.1 0.0
26/04:30am 11.3 8.7 10.7 96 0.3 W 15 19 8 10 1028.1 1028.1 0.0
26/04:00am 11.6 9.4 10.7 94 0.5 WSW 13 17 7 9 1028.1 1028.1 0.0
26/03:30am 12.1 9.5 10.8 92 0.7 WSW 15 19 8 10 1028.2 1028.2 0.0
26/03:00am 11.7 9.4 10.6 93 0.6 W 13 19 7 10 1028.3 1028.3 0.0
26/02:30am 12.7 10.1 10.6 87 1.1 WSW 15 19 8 10 1028.4 1028.4 0.0
26/02:00am 13.1 10.5 10.6 85 1.3 WSW 15 19 8 10 1028.5 1028.5 0.0
26/01:30am 12.8 10.2 10.7 87 1.1 WSW 15 19 8 10 1028.6 1028.6 0.0
26/01:00am 13.4 10.4 10.8 84 1.4 W 17 19 9 10 1028.6 1028.6 0.0
26/12:30am 13.5 10.9 10.7 83 1.5 W 15 19 8 10 1028.7 1028.7 0.0
26/12:00am 14.2 12.0 10.8 80 1.8 WSW 13 15 7 8 1028.7 1028.7 0.0
 
Date/Time
EST
Tmp

°C
App
Tmp
°C
Dew
Point
°C
Rel
Hum
%
Delta-T

°C
Wind Press
QNH
hPa
Press
MSL
hPa
Rain
since
9 am
mm
Dir
 
Spd
km/h
Gust
km/h
Spd
kts
Gust
kts
25/11:30pm 14.7 12.6 11.1 79 1.9 WSW 13 13 7 7 1028.9 1028.9 0.0
25/11:00pm 14.8 13.1 11.2 79 1.9 W 11 13 6 7 1029.0 1029.0 0.0
25/10:30pm 15.1 14.1 11.1 77 2.1 W 7 9 4 5 1029.1 1029.1 0.0
25/10:00pm 15.3 15.3 11.3 77 2.1 WNW 2 6 1 3 1029.3 1029.3 0.0
25/09:30pm 15.6 14.7 11.4 76 2.3 WNW 7 9 4 5 1029.2 1029.2 0.0
25/09:00pm 15.5 14.8 11.3 76 2.2 WNW 6 9 3 5 1029.3 1029.3 0.0
25/08:30pm 15.5 14.6 11.3 76 2.3 WNW 7 11 4 6 1029.5 1029.5 0.0
25/08:00pm 15.4 14.9 12.0 80 1.8 W 6 11 3 6 1029.4 1029.4 0.0

Latest Capital City Observations: Canberra | Sydney | Melbourne | Brisbane | Adelaide | Perth | Hobart | Darwin

Other Formats:

Comma delimited format used in spreadsheet applications
http://www.bom.gov.au/fwo/IDN60901/IDN60901.95770.axf

JavaScript Object Notation format (JSON) in row-major order
http://www.bom.gov.au/fwo/IDN60901/IDN60901.95770.json